sensor_id;sensor_type;location;lat;lon;timestamp;P1;durP1;ratioP1;P2;durP2;ratioP2
32824;SDS011;51060;42.640;24.356;2022-08-05T00:01:14;6.43;;;5.25;;
32824;SDS011;51060;42.640;24.356;2022-08-05T00:03:45;5.20;;;4.80;;
32824;SDS011;51060;42.640;24.356;2022-08-05T00:06:11;6.15;;;5.55;;
32824;SDS011;51060;42.640;24.356;2022-08-05T00:08:37;7.35;;;6.63;;
32824;SDS011;51060;42.640;24.356;2022-08-05T00:11:07;7.70;;;7.00;;
32824;SDS011;51060;42.640;24.356;2022-08-05T00:13:35;8.25;;;7.18;;
32824;SDS011;51060;42.640;24.356;2022-08-05T00:16:02;7.38;;;6.53;;
32824;SDS011;51060;42.640;24.356;2022-08-05T00:18:28;7.85;;;7.00;;
32824;SDS011;51060;42.640;24.356;2022-08-05T00:20:54;7.60;;;6.90;;
32824;SDS011;51060;42.640;24.356;2022-08-05T00:23:20;6.43;;;5.82;;
32824;SDS011;51060;42.640;24.356;2022-08-05T00:25:46;6.68;;;6.05;;
32824;SDS011;51060;42.640;24.356;2022-08-05T00:28:13;6.78;;;6.05;;
32824;SDS011;51060;42.640;24.356;2022-08-05T00:30:39;6.72;;;6.18;;
32824;SDS011;51060;42.640;24.356;2022-08-05T00:33:05;7.05;;;6.20;;
32824;SDS011;51060;42.640;24.356;2022-08-05T00:35:30;6.70;;;6.10;;
32824;SDS011;51060;42.640;24.356;2022-08-05T00:37:56;6.82;;;6.22;;
32824;SDS011;51060;42.640;24.356;2022-08-05T00:40:22;6.97;;;6.28;;
32824;SDS011;51060;42.640;24.356;2022-08-05T00:42:49;6.95;;;6.25;;
32824;SDS011;51060;42.640;24.356;2022-08-05T00:45:14;6.65;;;6.05;;
32824;SDS011;51060;42.640;24.356;2022-08-05T00:47:40;7.70;;;6.32;;
32824;SDS011;51060;42.640;24.356;2022-08-05T00:50:06;6.70;;;6.10;;
32824;SDS011;51060;42.640;24.356;2022-08-05T00:52:32;6.95;;;6.35;;
32824;SDS011;51060;42.640;24.356;2022-08-05T00:54:58;6.68;;;5.97;;
32824;SDS011;51060;42.640;24.356;2022-08-05T00:57:24;7.20;;;6.50;;
32824;SDS011;51060;42.640;24.356;2022-08-05T00:59:49;7.10;;;6.40;;
32824;SDS011;51060;42.640;24.356;2022-08-05T01:02:15;6.63;;;5.85;;
32824;SDS011;51060;42.640;24.356;2022-08-05T01:04:40;7.18;;;6.57;;
32824;SDS011;51060;42.640;24.356;2022-08-05T01:07:06;7.88;;;6.93;;
32824;SDS011;51060;42.640;24.356;2022-08-05T01:09:31;6.32;;;5.82;;
32824;SDS011;51060;42.640;24.356;2022-08-05T01:12:07;6.25;;;5.75;;
32824;SDS011;51060;42.640;24.356;2022-08-05T01:17:13;5.65;;;5.15;;
32824;SDS011;51060;42.640;24.356;2022-08-05T01:20:05;6.47;;;5.90;;
32824;SDS011;51060;42.640;24.356;2022-08-05T01:22:39;6.28;;;5.45;;
32824;SDS011;51060;42.640;24.356;2022-08-05T01:30:39;7.70;;;7.00;;
32824;SDS011;51060;42.640;24.356;2022-08-05T01:33:08;7.13;;;6.53;;
32824;SDS011;51060;42.640;24.356;2022-08-05T01:35:37;7.18;;;6.47;;
32824;SDS011;51060;42.640;24.356;2022-08-05T01:38:04;7.05;;;6.35;;
32824;SDS011;51060;42.640;24.356;2022-08-05T01:40:31;7.47;;;6.78;;
32824;SDS011;51060;42.640;24.356;2022-08-05T01:42:58;7.05;;;6.35;;
32824;SDS011;51060;42.640;24.356;2022-08-05T01:45:25;7.10;;;6.40;;
32824;SDS011;51060;42.640;24.356;2022-08-05T01:47:52;7.50;;;6.78;;
32824;SDS011;51060;42.640;24.356;2022-08-05T01:50:25;8.65;;;7.90;;
32824;SDS011;51060;42.640;24.356;2022-08-05T01:52:53;9.77;;;8.77;;
32824;SDS011;51060;42.640;24.356;2022-08-05T01:55:21;8.60;;;7.80;;
32824;SDS011;51060;42.640;24.356;2022-08-05T01:57:48;7.95;;;7.25;;
32824;SDS011;51060;42.640;24.356;2022-08-05T02:00:15;8.13;;;7.28;;
32824;SDS011;51060;42.640;24.356;2022-08-05T02:02:44;7.45;;;6.75;;
32824;SDS011;51060;42.640;24.356;2022-08-05T02:05:13;8.45;;;7.40;;
32824;SDS011;51060;42.640;24.356;2022-08-05T02:07:39;7.80;;;7.10;;
32824;SDS011;51060;42.640;24.356;2022-08-05T02:10:07;7.60;;;6.90;;
32824;SDS011;51060;42.640;24.356;2022-08-05T02:15:16;6.70;;;6.10;;
32824;SDS011;51060;42.640;24.356;2022-08-05T02:18:03;7.60;;;6.90;;
32824;SDS011;51060;42.640;24.356;2022-08-05T02:20:39;8.30;;;7.50;;
32824;SDS011;51060;42.640;24.356;2022-08-05T02:23:12;8.20;;;7.40;;
32824;SDS011;51060;42.640;24.356;2022-08-05T02:25:40;6.85;;;6.28;;
32824;SDS011;51060;42.640;24.356;2022-08-05T02:28:07;7.45;;;6.72;;
32824;SDS011;51060;42.640;24.356;2022-08-05T02:30:40;6.65;;;6.15;;
32824;SDS011;51060;42.640;24.356;2022-08-05T02:33:08;6.55;;;5.95;;
32824;SDS011;51060;42.640;24.356;2022-08-05T02:35:36;6.50;;;6.00;;
32824;SDS011;51060;42.640;24.356;2022-08-05T02:38:03;7.22;;;6.53;;
32824;SDS011;51060;42.640;24.356;2022-08-05T02:40:29;6.60;;;6.00;;
32824;SDS011;51060;42.640;24.356;2022-08-05T02:42:55;7.32;;;6.63;;
32824;SDS011;51060;42.640;24.356;2022-08-05T02:45:22;6.30;;;5.80;;
32824;SDS011;51060;42.640;24.356;2022-08-05T02:47:48;7.07;;;6.40;;
32824;SDS011;51060;42.640;24.356;2022-08-05T02:50:14;6.30;;;5.70;;
32824;SDS011;51060;42.640;24.356;2022-08-05T02:52:40;7.20;;;6.45;;
32824;SDS011;51060;42.640;24.356;2022-08-05T02:55:11;9.40;;;6.28;;
32824;SDS011;51060;42.640;24.356;2022-08-05T02:57:37;8.52;;;6.22;;
32824;SDS011;51060;42.640;24.356;2022-08-05T03:00:04;7.32;;;6.05;;
32824;SDS011;51060;42.640;24.356;2022-08-05T03:02:33;8.32;;;6.40;;
32824;SDS011;51060;42.640;24.356;2022-08-05T03:05:01;7.13;;;6.53;;
32824;SDS011;51060;42.640;24.356;2022-08-05T03:07:28;8.15;;;7.35;;
32824;SDS011;51060;42.640;24.356;2022-08-05T03:09:54;17.00;;;15.30;;
32824;SDS011;51060;42.640;24.356;2022-08-05T03:12:37;13.57;;;12.18;;
32824;SDS011;51060;42.640;24.356;2022-08-05T03:15:04;222.52;;;160.07;;
32824;SDS011;51060;42.640;24.356;2022-08-05T03:17:31;106.93;;;89.22;;
32824;SDS011;51060;42.640;24.356;2022-08-05T03:19:57;157.55;;;115.97;;
32824;SDS011;51060;42.640;24.356;2022-08-05T03:22:23;124.50;;;91.75;;
32824;SDS011;51060;42.640;24.356;2022-08-05T03:24:49;40.53;;;32.92;;
32824;SDS011;51060;42.640;24.356;2022-08-05T03:27:16;11.90;;;9.85;;
32824;SDS011;51060;42.640;24.356;2022-08-05T03:29:42;9.70;;;8.75;;
32824;SDS011;51060;42.640;24.356;2022-08-05T03:32:08;10.00;;;7.82;;
32824;SDS011;51060;42.640;24.356;2022-08-05T03:34:33;8.82;;;7.30;;
32824;SDS011;51060;42.640;24.356;2022-08-05T03:37:00;9.38;;;7.32;;
32824;SDS011;51060;42.640;24.356;2022-08-05T03:39:26;9.25;;;7.40;;
32824;SDS011;51060;42.640;24.356;2022-08-05T03:41:52;9.88;;;7.57;;
32824;SDS011;51060;42.640;24.356;2022-08-05T03:44:18;7.97;;;7.18;;
32824;SDS011;51060;42.640;24.356;2022-08-05T03:46:44;8.32;;;7.45;;
32824;SDS011;51060;42.640;24.356;2022-08-05T03:49:09;9.18;;;6.70;;
32824;SDS011;51060;42.640;24.356;2022-08-05T03:51:36;7.85;;;7.15;;
32824;SDS011;51060;42.640;24.356;2022-08-05T03:54:05;9.50;;;8.50;;
32824;SDS011;51060;42.640;24.356;2022-08-05T03:56:42;10.02;;;8.63;;
32824;SDS011;51060;42.640;24.356;2022-08-05T03:59:21;10.25;;;9.18;;
32824;SDS011;51060;42.640;24.356;2022-08-05T04:01:48;12.93;;;10.48;;
32824;SDS011;51060;42.640;24.356;2022-08-05T04:04:15;17.35;;;12.98;;
32824;SDS011;51060;42.640;24.356;2022-08-05T04:06:41;14.48;;;12.10;;
32824;SDS011;51060;42.640;24.356;2022-08-05T04:09:07;94.05;;;73.65;;
32824;SDS011;51060;42.640;24.356;2022-08-05T04:11:33;24.88;;;22.10;;
32824;SDS011;51060;42.640;24.356;2022-08-05T04:13:59;12.50;;;11.23;;
32824;SDS011;51060;42.640;24.356;2022-08-05T04:16:25;13.00;;;10.13;;
32824;SDS011;51060;42.640;24.356;2022-08-05T04:18:52;11.50;;;9.48;;
32824;SDS011;51060;42.640;24.356;2022-08-05T04:21:18;10.68;;;8.65;;
32824;SDS011;51060;42.640;24.356;2022-08-05T04:23:43;18.67;;;13.70;;
32824;SDS011;51060;42.640;24.356;2022-08-05T04:26:09;49.28;;;41.03;;
32824;SDS011;51060;42.640;24.356;2022-08-05T04:28:34;29.80;;;24.00;;
32824;SDS011;51060;42.640;24.356;2022-08-05T04:31:00;30.58;;;24.95;;
32824;SDS011;51060;42.640;24.356;2022-08-05T04:33:26;13.18;;;11.57;;
32824;SDS011;51060;42.640;24.356;2022-08-05T04:35:51;12.40;;;9.32;;
32824;SDS011;51060;42.640;24.356;2022-08-05T04:38:17;9.50;;;8.52;;
32824;SDS011;51060;42.640;24.356;2022-08-05T04:40:43;12.30;;;8.55;;
32824;SDS011;51060;42.640;24.356;2022-08-05T04:43:08;10.18;;;9.15;;
32824;SDS011;51060;42.640;24.356;2022-08-05T04:45:34;12.15;;;10.30;;
32824;SDS011;51060;42.640;24.356;2022-08-05T04:48:13;18.35;;;10.80;;
32824;SDS011;51060;42.640;24.356;2022-08-05T04:50:46;16.35;;;12.10;;
32824;SDS011;51060;42.640;24.356;2022-08-05T04:53:13;12.73;;;11.43;;
32824;SDS011;51060;42.640;24.356;2022-08-05T04:55:41;14.85;;;12.95;;
32824;SDS011;51060;42.640;24.356;2022-08-05T04:58:09;39.28;;;34.00;;
32824;SDS011;51060;42.640;24.356;2022-08-05T05:00:36;55.45;;;46.95;;
32824;SDS011;51060;42.640;24.356;2022-08-05T05:03:02;16.00;;;13.40;;
32824;SDS011;51060;42.640;24.356;2022-08-05T05:05:29;27.50;;;22.02;;
32824;SDS011;51060;42.640;24.356;2022-08-05T05:07:55;17.58;;;14.25;;
32824;SDS011;51060;42.640;24.356;2022-08-05T05:10:24;11.32;;;10.13;;
32824;SDS011;51060;42.640;24.356;2022-08-05T05:12:50;12.65;;;9.45;;
32824;SDS011;51060;42.640;24.356;2022-08-05T05:15:15;44.75;;;34.95;;
32824;SDS011;51060;42.640;24.356;2022-08-05T05:17:42;21.90;;;19.42;;
32824;SDS011;51060;42.640;24.356;2022-08-05T05:20:08;17.10;;;14.05;;
32824;SDS011;51060;42.640;24.356;2022-08-05T05:22:34;16.80;;;12.20;;
32824;SDS011;51060;42.640;24.356;2022-08-05T05:25:01;11.82;;;9.55;;
32824;SDS011;51060;42.640;24.356;2022-08-05T05:27:27;10.95;;;8.88;;
32824;SDS011;51060;42.640;24.356;2022-08-05T05:29:54;9.00;;;8.20;;
32824;SDS011;51060;42.640;24.356;2022-08-05T05:32:20;36.83;;;32.13;;
32824;SDS011;51060;42.640;24.356;2022-08-05T05:34:45;35.08;;;31.35;;
32824;SDS011;51060;42.640;24.356;2022-08-05T05:37:11;25.02;;;22.27;;
32824;SDS011;51060;42.640;24.356;2022-08-05T05:39:37;15.35;;;11.85;;
32824;SDS011;51060;42.640;24.356;2022-08-05T05:42:02;11.95;;;9.30;;
32824;SDS011;51060;42.640;24.356;2022-08-05T05:44:28;10.75;;;9.63;;
32824;SDS011;51060;42.640;24.356;2022-08-05T05:46:54;14.82;;;10.40;;
32824;SDS011;51060;42.640;24.356;2022-08-05T05:49:19;12.90;;;8.90;;
32824;SDS011;51060;42.640;24.356;2022-08-05T05:51:45;12.27;;;8.95;;
32824;SDS011;51060;42.640;24.356;2022-08-05T05:54:10;12.20;;;8.07;;
32824;SDS011;51060;42.640;24.356;2022-08-05T05:56:36;24.58;;;20.98;;
32824;SDS011;51060;42.640;24.356;2022-08-05T05:59:02;8.10;;;7.30;;
32824;SDS011;51060;42.640;24.356;2022-08-05T06:01:28;8.98;;;7.30;;
32824;SDS011;51060;42.640;24.356;2022-08-05T06:03:54;7.50;;;6.55;;
32824;SDS011;51060;42.640;24.356;2022-08-05T06:06:19;6.65;;;5.95;;
32824;SDS011;51060;42.640;24.356;2022-08-05T06:08:45;6.85;;;5.35;;
32824;SDS011;51060;42.640;24.356;2022-08-05T06:11:10;8.13;;;6.18;;
32824;SDS011;51060;42.640;24.356;2022-08-05T06:13:36;9.32;;;5.85;;
32824;SDS011;51060;42.640;24.356;2022-08-05T06:16:01;6.22;;;4.93;;
32824;SDS011;51060;42.640;24.356;2022-08-05T06:18:27;5.97;;;5.38;;
32824;SDS011;51060;42.640;24.356;2022-08-05T06:20:52;6.90;;;6.10;;
32824;SDS011;51060;42.640;24.356;2022-08-05T06:23:18;10.35;;;7.45;;
32824;SDS011;51060;42.640;24.356;2022-08-05T06:25:44;7.97;;;6.40;;
32824;SDS011;51060;42.640;24.356;2022-08-05T06:28:09;7.88;;;6.07;;
32824;SDS011;51060;42.640;24.356;2022-08-05T06:30:35;7.45;;;5.97;;
32824;SDS011;51060;42.640;24.356;2022-08-05T06:33:00;10.25;;;8.07;;
32824;SDS011;51060;42.640;24.356;2022-08-05T06:35:26;12.18;;;9.38;;
32824;SDS011;51060;42.640;24.356;2022-08-05T06:37:51;8.30;;;7.30;;
32824;SDS011;51060;42.640;24.356;2022-08-05T06:40:17;9.88;;;8.63;;
32824;SDS011;51060;42.640;24.356;2022-08-05T06:42:42;10.95;;;9.57;;
32824;SDS011;51060;42.640;24.356;2022-08-05T06:45:08;8.32;;;7.63;;
32824;SDS011;51060;42.640;24.356;2022-08-05T06:47:34;6.60;;;6.00;;
32824;SDS011;51060;42.640;24.356;2022-08-05T06:50:00;8.45;;;6.25;;
32824;SDS011;51060;42.640;24.356;2022-08-05T06:52:25;5.90;;;5.40;;
32824;SDS011;51060;42.640;24.356;2022-08-05T06:54:51;5.75;;;4.57;;
32824;SDS011;51060;42.640;24.356;2022-08-05T06:57:17;7.85;;;4.72;;
32824;SDS011;51060;42.640;24.356;2022-08-05T06:59:42;4.75;;;4.25;;
32824;SDS011;51060;42.640;24.356;2022-08-05T07:02:08;5.22;;;3.90;;
32824;SDS011;51060;42.640;24.356;2022-08-05T07:04:34;3.33;;;3.08;;
32824;SDS011;51060;42.640;24.356;2022-08-05T07:07:00;3.35;;;2.88;;
32824;SDS011;51060;42.640;24.356;2022-08-05T07:09:25;3.88;;;2.70;;
32824;SDS011;51060;42.640;24.356;2022-08-05T07:11:51;4.47;;;2.50;;
32824;SDS011;51060;42.640;24.356;2022-08-05T07:14:16;3.97;;;2.78;;
32824;SDS011;51060;42.640;24.356;2022-08-05T07:17:01;3.33;;;2.75;;
32824;SDS011;51060;42.640;24.356;2022-08-05T07:19:26;3.53;;;2.72;;
32824;SDS011;51060;42.640;24.356;2022-08-05T07:21:55;3.17;;;2.88;;
32824;SDS011;51060;42.640;24.356;2022-08-05T07:24:21;2.70;;;2.50;;
32824;SDS011;51060;42.640;24.356;2022-08-05T07:26:47;3.40;;;2.60;;
32824;SDS011;51060;42.640;24.356;2022-08-05T07:29:13;11.85;;;10.60;;
32824;SDS011;51060;42.640;24.356;2022-08-05T07:31:39;3.40;;;3.08;;
32824;SDS011;51060;42.640;24.356;2022-08-05T07:34:06;3.03;;;2.67;;
32824;SDS011;51060;42.640;24.356;2022-08-05T07:36:31;5.15;;;2.90;;
32824;SDS011;51060;42.640;24.356;2022-08-05T07:39:07;3.28;;;3.08;;
32824;SDS011;51060;42.640;24.356;2022-08-05T07:41:33;5.90;;;3.10;;
32824;SDS011;51060;42.640;24.356;2022-08-05T07:43:59;3.10;;;2.90;;
32824;SDS011;51060;42.640;24.356;2022-08-05T07:46:25;8.30;;;7.53;;
32824;SDS011;51060;42.640;24.356;2022-08-05T07:48:53;6.30;;;5.32;;
32824;SDS011;51060;42.640;24.356;2022-08-05T07:51:19;6.18;;;4.75;;
32824;SDS011;51060;42.640;24.356;2022-08-05T07:53:44;4.28;;;3.08;;
32824;SDS011;51060;42.640;24.356;2022-08-05T07:56:10;2.90;;;2.70;;
32824;SDS011;51060;42.640;24.356;2022-08-05T07:58:35;3.13;;;2.63;;
32824;SDS011;51060;42.640;24.356;2022-08-05T08:01:01;4.25;;;2.83;;
32824;SDS011;51060;42.640;24.356;2022-08-05T08:03:27;3.30;;;3.00;;
32824;SDS011;51060;42.640;24.356;2022-08-05T08:05:52;14.60;;;13.07;;
32824;SDS011;51060;42.640;24.356;2022-08-05T08:08:18;4.45;;;3.63;;
32824;SDS011;51060;42.640;24.356;2022-08-05T08:10:44;3.08;;;2.88;;
32824;SDS011;51060;42.640;24.356;2022-08-05T08:13:10;4.63;;;2.78;;
32824;SDS011;51060;42.640;24.356;2022-08-05T08:15:35;3.83;;;3.10;;
32824;SDS011;51060;42.640;24.356;2022-08-05T08:18:01;3.17;;;2.88;;
32824;SDS011;51060;42.640;24.356;2022-08-05T08:20:27;5.88;;;3.25;;
32824;SDS011;51060;42.640;24.356;2022-08-05T08:22:57;3.97;;;3.40;;
32824;SDS011;51060;42.640;24.356;2022-08-05T08:25:23;3.20;;;3.00;;
32824;SDS011;51060;42.640;24.356;2022-08-05T08:27:50;5.78;;;3.05;;
32824;SDS011;51060;42.640;24.356;2022-08-05T08:30:15;4.22;;;3.13;;
32824;SDS011;51060;42.640;24.356;2022-08-05T08:32:41;3.40;;;3.10;;
32824;SDS011;51060;42.640;24.356;2022-08-05T08:35:07;3.97;;;3.40;;
32824;SDS011;51060;42.640;24.356;2022-08-05T08:37:33;31.35;;;28.15;;
32824;SDS011;51060;42.640;24.356;2022-08-05T08:39:59;9.38;;;6.25;;
32824;SDS011;51060;42.640;24.356;2022-08-05T08:42:25;6.18;;;5.63;;
32824;SDS011;51060;42.640;24.356;2022-08-05T08:44:52;6.18;;;3.60;;
32824;SDS011;51060;42.640;24.356;2022-08-05T08:47:22;3.50;;;2.90;;
32824;SDS011;51060;42.640;24.356;2022-08-05T08:49:50;4.13;;;3.80;;
32824;SDS011;51060;42.640;24.356;2022-08-05T08:52:52;4.15;;;3.50;;
32824;SDS011;51060;42.640;24.356;2022-08-05T08:55:18;12.45;;;11.15;;
32824;SDS011;51060;42.640;24.356;2022-08-05T08:57:45;5.50;;;4.32;;
32824;SDS011;51060;42.640;24.356;2022-08-05T09:00:12;7.00;;;5.95;;
32824;SDS011;51060;42.640;24.356;2022-08-05T09:02:38;4.22;;;3.83;;
32824;SDS011;51060;42.640;24.356;2022-08-05T09:05:04;5.45;;;3.67;;
32824;SDS011;51060;42.640;24.356;2022-08-05T09:07:30;5.60;;;5.10;;
32824;SDS011;51060;42.640;24.356;2022-08-05T09:09:56;9.57;;;8.63;;
32824;SDS011;51060;42.640;24.356;2022-08-05T09:12:21;3.90;;;3.47;;
32824;SDS011;51060;42.640;24.356;2022-08-05T09:14:47;3.17;;;2.80;;
32824;SDS011;51060;42.640;24.356;2022-08-05T09:17:13;19.65;;;17.65;;
32824;SDS011;51060;42.640;24.356;2022-08-05T09:19:40;5.70;;;5.18;;
32824;SDS011;51060;42.640;24.356;2022-08-05T09:22:06;3.35;;;3.05;;
32824;SDS011;51060;42.640;24.356;2022-08-05T09:24:34;3.83;;;3.08;;
32824;SDS011;51060;42.640;24.356;2022-08-05T09:27:01;3.45;;;3.15;;
32824;SDS011;51060;42.640;24.356;2022-08-05T09:29:36;3.20;;;3.00;;
32824;SDS011;51060;42.640;24.356;2022-08-05T09:32:04;7.45;;;6.70;;
32824;SDS011;51060;42.640;24.356;2022-08-05T09:34:53;4.97;;;4.45;;
32824;SDS011;51060;42.640;24.356;2022-08-05T09:37:21;20.38;;;18.40;;
32824;SDS011;51060;42.640;24.356;2022-08-05T09:39:48;4.40;;;4.00;;
32824;SDS011;51060;42.640;24.356;2022-08-05T09:42:15;5.47;;;3.20;;
32824;SDS011;51060;42.640;24.356;2022-08-05T09:44:42;3.90;;;3.33;;
32824;SDS011;51060;42.640;24.356;2022-08-05T09:49:41;5.75;;;3.70;;
32824;SDS011;51060;42.640;24.356;2022-08-05T09:54:56;5.13;;;4.25;;
32824;SDS011;51060;42.640;24.356;2022-08-05T09:57:36;4.60;;;4.10;;
32824;SDS011;51060;42.640;24.356;2022-08-05T10:00:05;3.65;;;3.20;;
32824;SDS011;51060;42.640;24.356;2022-08-05T10:02:40;4.13;;;3.15;;
32824;SDS011;51060;42.640;24.356;2022-08-05T10:05:07;4.88;;;4.43;;
32824;SDS011;51060;42.640;24.356;2022-08-05T10:07:47;4.43;;;3.92;;
32824;SDS011;51060;42.640;24.356;2022-08-05T10:10:25;7.47;;;6.28;;
32824;SDS011;51060;42.640;24.356;2022-08-05T10:13:11;4.18;;;3.38;;
32824;SDS011;51060;42.640;24.356;2022-08-05T10:15:51;3.33;;;3.08;;
32824;SDS011;51060;42.640;24.356;2022-08-05T10:18:19;5.13;;;3.38;;
32824;SDS011;51060;42.640;24.356;2022-08-05T10:20:57;3.50;;;3.25;;
32824;SDS011;51060;42.640;24.356;2022-08-05T10:23:29;3.70;;;3.40;;
32824;SDS011;51060;42.640;24.356;2022-08-05T10:26:00;4.25;;;3.38;;
32824;SDS011;51060;42.640;24.356;2022-08-05T10:28:28;3.00;;;2.80;;
32824;SDS011;51060;42.640;24.356;2022-08-05T10:30:55;3.42;;;3.20;;
32824;SDS011;51060;42.640;24.356;2022-08-05T10:33:22;3.38;;;3.08;;
32824;SDS011;51060;42.640;24.356;2022-08-05T10:35:50;4.70;;;2.97;;
32824;SDS011;51060;42.640;24.356;2022-08-05T10:38:18;3.33;;;3.10;;
32824;SDS011;51060;42.640;24.356;2022-08-05T10:43:23;4.75;;;2.90;;
32824;SDS011;51060;42.640;24.356;2022-08-05T10:46:00;3.35;;;3.03;;
32824;SDS011;51060;42.640;24.356;2022-08-05T10:51:12;3.40;;;3.10;;
32824;SDS011;51060;42.640;24.356;2022-08-05T10:56:22;3.55;;;3.25;;
32824;SDS011;51060;42.640;24.356;2022-08-05T11:01:26;3.15;;;2.95;;
32824;SDS011;51060;42.640;24.356;2022-08-05T11:06:30;3.53;;;3.22;;
32824;SDS011;51060;42.640;24.356;2022-08-05T11:09:09;3.28;;;2.97;;
32824;SDS011;51060;42.640;24.356;2022-08-05T11:11:47;4.20;;;3.20;;
32824;SDS011;51060;42.640;24.356;2022-08-05T11:19:54;3.67;;;3.38;;
32824;SDS011;51060;42.640;24.356;2022-08-05T11:22:43;4.97;;;3.33;;
32824;SDS011;51060;42.640;24.356;2022-08-05T11:27:56;17.80;;;15.32;;
32824;SDS011;51060;42.640;24.356;2022-08-05T11:35:55;8.63;;;7.43;;
32824;SDS011;51060;42.640;24.356;2022-08-05T11:46:45;3.80;;;3.50;;
32824;SDS011;51060;42.640;24.356;2022-08-05T11:49:12;4.03;;;3.20;;
32824;SDS011;51060;42.640;24.356;2022-08-05T11:51:42;4.90;;;3.70;;
32824;SDS011;51060;42.640;24.356;2022-08-05T11:54:10;4.00;;;3.58;;
32824;SDS011;51060;42.640;24.356;2022-08-05T11:56:43;3.58;;;3.28;;
32824;SDS011;51060;42.640;24.356;2022-08-05T11:59:16;6.63;;;3.75;;
32824;SDS011;51060;42.640;24.356;2022-08-05T12:01:57;3.88;;;3.47;;
32824;SDS011;51060;42.640;24.356;2022-08-05T12:04:24;3.40;;;3.20;;
32824;SDS011;51060;42.640;24.356;2022-08-05T12:06:52;3.95;;;3.30;;
32824;SDS011;51060;42.640;24.356;2022-08-05T12:09:22;4.53;;;3.22;;
32824;SDS011;51060;42.640;24.356;2022-08-05T12:11:49;3.65;;;3.35;;
32824;SDS011;51060;42.640;24.356;2022-08-05T12:14:15;4.30;;;3.53;;
32824;SDS011;51060;42.640;24.356;2022-08-05T12:16:41;3.55;;;3.25;;
32824;SDS011;51060;42.640;24.356;2022-08-05T12:19:09;3.30;;;2.97;;
32824;SDS011;51060;42.640;24.356;2022-08-05T12:21:41;4.43;;;3.05;;
32824;SDS011;51060;42.640;24.356;2022-08-05T12:24:08;4.50;;;3.28;;
32824;SDS011;51060;42.640;24.356;2022-08-05T12:26:51;10.82;;;3.80;;
32824;SDS011;51060;42.640;24.356;2022-08-05T12:29:18;4.30;;;3.50;;
32824;SDS011;51060;42.640;24.356;2022-08-05T12:31:49;3.30;;;3.10;;
32824;SDS011;51060;42.640;24.356;2022-08-05T12:34:22;5.13;;;3.25;;
32824;SDS011;51060;42.640;24.356;2022-08-05T12:36:52;3.70;;;3.30;;
32824;SDS011;51060;42.640;24.356;2022-08-05T12:39:20;3.95;;;3.30;;
32824;SDS011;51060;42.640;24.356;2022-08-05T12:41:47;3.72;;;3.42;;
32824;SDS011;51060;42.640;24.356;2022-08-05T12:44:13;7.20;;;3.90;;
32824;SDS011;51060;42.640;24.356;2022-08-05T12:46:40;5.35;;;3.70;;
32824;SDS011;51060;42.640;24.356;2022-08-05T12:49:11;3.33;;;3.10;;
32824;SDS011;51060;42.640;24.356;2022-08-05T12:51:48;3.50;;;3.20;;
32824;SDS011;51060;42.640;24.356;2022-08-05T12:54:22;3.40;;;3.00;;
32824;SDS011;51060;42.640;24.356;2022-08-05T12:56:56;3.58;;;3.08;;
32824;SDS011;51060;42.640;24.356;2022-08-05T12:59:34;3.15;;;2.95;;
32824;SDS011;51060;42.640;24.356;2022-08-05T13:02:07;4.80;;;3.50;;
32824;SDS011;51060;42.640;24.356;2022-08-05T13:04:35;3.90;;;3.03;;
32824;SDS011;51060;42.640;24.356;2022-08-05T13:07:13;3.28;;;2.97;;
32824;SDS011;51060;42.640;24.356;2022-08-05T13:09:51;4.60;;;3.35;;
32824;SDS011;51060;42.640;24.356;2022-08-05T13:12:19;5.28;;;3.40;;
32824;SDS011;51060;42.640;24.356;2022-08-05T13:14:47;4.05;;;3.75;;
32824;SDS011;51060;42.640;24.356;2022-08-05T13:17:24;4.07;;;3.28;;
32824;SDS011;51060;42.640;24.356;2022-08-05T13:20:07;15.95;;;14.45;;
32824;SDS011;51060;42.640;24.356;2022-08-05T13:22:34;51.45;;;46.88;;
32824;SDS011;51060;42.640;24.356;2022-08-05T13:25:05;10.07;;;8.52;;
32824;SDS011;51060;42.640;24.356;2022-08-05T13:27:40;28.17;;;25.63;;
32824;SDS011;51060;42.640;24.356;2022-08-05T13:30:17;5.32;;;4.22;;
32824;SDS011;51060;42.640;24.356;2022-08-05T13:32:45;5.07;;;2.88;;
32824;SDS011;51060;42.640;24.356;2022-08-05T13:35:13;3.78;;;2.92;;
32824;SDS011;51060;42.640;24.356;2022-08-05T13:37:39;3.72;;;3.40;;
32824;SDS011;51060;42.640;24.356;2022-08-05T13:40:05;3.70;;;3.30;;
32824;SDS011;51060;42.640;24.356;2022-08-05T13:42:32;4.90;;;3.42;;
32824;SDS011;51060;42.640;24.356;2022-08-05T13:44:58;3.92;;;3.20;;
32824;SDS011;51060;42.640;24.356;2022-08-05T13:47:23;3.58;;;3.25;;
32824;SDS011;51060;42.640;24.356;2022-08-05T13:49:50;4.78;;;3.20;;
32824;SDS011;51060;42.640;24.356;2022-08-05T13:52:17;3.75;;;3.17;;
32824;SDS011;51060;42.640;24.356;2022-08-05T13:54:43;6.50;;;5.10;;
32824;SDS011;51060;42.640;24.356;2022-08-05T13:57:09;26.55;;;5.00;;
32824;SDS011;51060;42.640;24.356;2022-08-05T13:59:36;7.90;;;5.13;;
32824;SDS011;51060;42.640;24.356;2022-08-05T14:02:03;5.00;;;3.20;;
32824;SDS011;51060;42.640;24.356;2022-08-05T14:04:30;12.32;;;11.13;;
32824;SDS011;51060;42.640;24.356;2022-08-05T14:07:23;4.72;;;3.47;;
32824;SDS011;51060;42.640;24.356;2022-08-05T14:09:52;6.70;;;3.63;;
32824;SDS011;51060;42.640;24.356;2022-08-05T14:12:18;5.10;;;3.00;;
32824;SDS011;51060;42.640;24.356;2022-08-05T14:14:44;5.00;;;3.30;;
32824;SDS011;51060;42.640;24.356;2022-08-05T14:17:09;4.30;;;3.95;;
32824;SDS011;51060;42.640;24.356;2022-08-05T14:19:35;6.43;;;5.82;;
32824;SDS011;51060;42.640;24.356;2022-08-05T14:22:01;3.00;;;2.72;;
32824;SDS011;51060;42.640;24.356;2022-08-05T14:24:26;5.35;;;3.22;;
32824;SDS011;51060;42.640;24.356;2022-08-05T14:26:52;3.10;;;2.78;;
32824;SDS011;51060;42.640;24.356;2022-08-05T14:29:18;3.50;;;2.53;;
32824;SDS011;51060;42.640;24.356;2022-08-05T14:31:44;2.78;;;2.58;;
32824;SDS011;51060;42.640;24.356;2022-08-05T14:34:09;9.55;;;8.55;;
32824;SDS011;51060;42.640;24.356;2022-08-05T14:36:35;5.20;;;4.72;;
32824;SDS011;51060;42.640;24.356;2022-08-05T14:39:01;5.22;;;4.53;;
32824;SDS011;51060;42.640;24.356;2022-08-05T14:41:27;7.25;;;6.22;;
32824;SDS011;51060;42.640;24.356;2022-08-05T14:43:52;4.13;;;3.83;;
32824;SDS011;51060;42.640;24.356;2022-08-05T14:46:20;2.97;;;2.70;;
32824;SDS011;51060;42.640;24.356;2022-08-05T14:48:46;3.00;;;2.80;;
32824;SDS011;51060;42.640;24.356;2022-08-05T14:51:12;3.30;;;3.03;;
32824;SDS011;51060;42.640;24.356;2022-08-05T14:53:38;2.75;;;2.55;;
32824;SDS011;51060;42.640;24.356;2022-08-05T14:56:03;11.10;;;4.00;;
32824;SDS011;51060;42.640;24.356;2022-08-05T14:58:29;11.35;;;8.82;;
32824;SDS011;51060;42.640;24.356;2022-08-05T15:00:55;5.05;;;3.97;;
32824;SDS011;51060;42.640;24.356;2022-08-05T15:03:20;3.55;;;3.20;;
32824;SDS011;51060;42.640;24.356;2022-08-05T15:05:46;8.13;;;3.60;;
32824;SDS011;51060;42.640;24.356;2022-08-05T15:08:12;8.52;;;4.45;;
32824;SDS011;51060;42.640;24.356;2022-08-05T15:10:37;11.13;;;9.15;;
32824;SDS011;51060;42.640;24.356;2022-08-05T15:13:05;6.75;;;5.43;;
32824;SDS011;51060;42.640;24.356;2022-08-05T15:15:31;4.20;;;3.83;;
32824;SDS011;51060;42.640;24.356;2022-08-05T15:17:56;5.15;;;3.08;;
32824;SDS011;51060;42.640;24.356;2022-08-05T15:20:22;3.50;;;3.20;;
32824;SDS011;51060;42.640;24.356;2022-08-05T15:22:49;4.32;;;3.53;;
32824;SDS011;51060;42.640;24.356;2022-08-05T15:25:15;3.65;;;3.35;;